Time;durP1;ratioP1;P1;durP2;ratioP2;P2;SDS_P1;SDS_P2;PMS_P1;PMS_P2;Temp;Humidity;BMP_temperature;BMP_pressure;BME280_temperature;BME280_humidity;BME280_pressure;Samples;Min_cycle;Max_cycle;Signal;HPM_P1;HPM_P2
2022/04/12 00:00:24;;;;;;;7.53;7.03;;;;;;;6.75;66.12;100496.25;5052755;28;20233;-77
2022/04/12 00:02:51;;;;;;;8.30;7.60;;;;;;;6.71;66.51;100475.53;5053248;28;20205;-77
2022/04/12 00:05:18;;;;;;;7.53;6.93;;;;;;;6.65;66.47;100472.94;5061012;28;20216;-77
2022/04/12 00:07:45;;;;;;;7.50;6.80;;;;;;;6.61;67.05;100466.03;5064572;28;20757;-77
2022/04/12 00:10:12;;;;;;;8.00;7.23;;;;;;;6.47;66.27;100472.09;5073271;28;20278;-77
2022/04/12 00:12:38;;;;;;;8.20;7.50;;;;;;;6.43;66.37;100472.13;5073185;28;20200;-78
2022/04/12 00:15:06;;;;;;;7.60;7.00;;;;;;;6.39;66.48;100476.44;5073111;28;20206;-77
2022/04/12 00:20:15;;;;;;;7.83;7.23;;;;;;;6.19;66.85;100460.06;5029553;28;20221;-77
2022/04/12 00:22:42;;;;;;;7.60;7.00;;;;;;;6.09;67.25;100441.91;5073819;28;20239;-77
2022/04/12 00:25:10;;;;;;;7.93;7.23;;;;;;;6.14;67.55;100437.59;5073655;28;20211;-77
2022/04/12 00:27:38;;;;;;;7.60;6.90;;;;;;;6.12;68.04;100434.13;5074346;28;20792;-77
2022/04/12 00:30:05;;;;;;;7.70;7.10;;;;;;;6.10;67.94;100424.63;5074629;28;20648;-78
2022/04/12 00:32:31;;;;;;;7.80;7.20;;;;;;;6.05;68.16;100414.28;5074867;28;20200;-78
2022/04/12 00:35:00;;;;;;;7.17;6.67;;;;;;;6.04;68.56;100403.91;5074296;28;20221;-78
2022/04/12 00:37:27;;;;;;;8.97;7.67;;;;;;;5.95;68.82;100391.84;5066545;28;20300;-78
2022/04/12 00:39:54;;;;;;;6.90;6.30;;;;;;;5.99;69.00;100390.13;5074469;28;20222;-77
2022/04/12 00:42:20;;;;;;;6.73;6.23;;;;;;;5.91;69.43;100383.16;5074835;28;20208;-77
2022/04/12 00:44:47;;;;;;;7.17;6.57;;;;;;;5.93;68.92;100370.22;5074329;28;20578;-78
2022/04/12 00:47:14;;;;;;;7.27;6.67;;;;;;;5.97;68.94;100367.66;5074376;28;20619;-77
2022/04/12 00:49:41;;;;;;;7.43;6.77;;;;;;;6.00;69.05;100366.78;5074707;28;20290;-77
2022/04/12 00:52:10;;;;;;;8.47;7.83;;;;;;;5.97;69.64;100356.44;5075323;28;20207;-78
2022/04/12 00:54:38;;;;;;;7.80;7.30;;;;;;;5.87;69.54;100345.19;5074437;28;20260;-77
2022/04/12 00:57:06;;;;;;;7.73;7.13;;;;;;;5.85;69.97;100341.72;5074476;28;20201;-78
2022/04/12 00:59:33;;;;;;;8.40;7.80;;;;;;;5.88;69.81;100340.84;5074764;28;20275;-77
2022/04/12 01:01:59;;;;;;;9.47;8.67;;;;;;;5.96;70.11;100337.41;5075231;28;20204;-77
2022/04/12 01:04:26;;;;;;;8.57;7.97;;;;;;;6.00;70.22;100335.69;5074339;28;20662;-77
2022/04/12 01:06:52;;;;;;;9.80;8.90;;;;;;;6.01;69.65;100329.66;5069736;28;20206;-78
2022/04/12 01:09:21;;;;;;;8.50;7.80;;;;;;;5.99;70.36;100325.34;5072774;28;20247;-78
2022/04/12 01:11:48;;;;;;;8.93;8.13;;;;;;;6.04;70.10;100332.22;5078422;28;20243;-78
2022/04/12 01:14:15;;;;;;;9.83;9.10;;;;;;;6.03;70.39;100324.47;5077823;28;20211;-78
2022/04/12 01:16:41;;;;;;;9.43;8.73;;;;;;;6.00;69.88;100327.91;5078319;28;20209;-78
2022/04/12 01:19:08;;;;;;;10.23;9.53;;;;;;;5.86;70.99;100311.50;5078149;28;20339;-78
2022/04/12 01:21:39;;;;;;;9.67;8.87;;;;;;;5.84;70.60;100308.91;5077840;28;20651;-77
2022/04/12 01:24:08;;;;;;;11.17;9.80;;;;;;;5.77;70.85;100327.94;5077271;28;20670;-78
2022/04/12 01:26:34;;;;;;;11.47;10.50;;;;;;;5.72;69.91;100343.44;5077590;28;20204;-78
2022/04/12 01:29:01;;;;;;;10.07;9.37;;;;;;;5.76;70.00;100352.09;5077340;28;20228;-78
2022/04/12 01:31:28;;;;;;;9.90;9.03;;;;;;;5.83;69.89;100347.75;5078058;28;20254;-78
2022/04/12 01:33:54;;;;;;;10.77;9.73;;;;;;;5.77;69.76;100339.16;5077346;28;20201;-78
2022/04/12 01:36:21;;;;;;;10.50;9.60;;;;;;;5.71;70.41;100339.16;5076655;28;20212;-78
2022/04/12 01:38:47;;;;;;;10.27;9.40;;;;;;;5.70;70.43;100336.56;5070275;28;20209;-78
2022/04/12 01:41:15;;;;;;;9.87;9.10;;;;;;;5.69;70.50;100334.81;5077797;28;20220;-78
2022/04/12 01:43:42;;;;;;;9.73;9.03;;;;;;;5.62;70.85;100326.19;5077015;28;20200;-78
2022/04/12 01:46:08;;;;;;;10.23;9.30;;;;;;;5.53;71.03;100313.25;5077411;28;20205;-78
2022/04/12 01:48:34;;;;;;;9.27;8.57;;;;;;;5.50;70.97;100313.28;5077641;28;20224;-77
2022/04/12 01:51:01;;;;;;;9.10;8.40;;;;;;;5.49;71.07;100306.34;5076899;28;20220;-77
2022/04/12 01:53:27;;;;;;;10.20;9.40;;;;;;;5.45;71.31;100315.88;5077822;28;20209;-78
2022/04/12 01:55:54;;;;;;;9.63;8.80;;;;;;;5.45;71.02;100321.03;5077367;28;20246;-78
2022/04/12 01:58:22;;;;;;;10.27;9.47;;;;;;;5.44;71.10;100313.28;5077487;28;20200;-78
2022/04/12 02:00:48;;;;;;;10.10;9.10;;;;;;;5.37;71.59;100314.97;5077474;28;20228;-78
2022/04/12 02:03:15;;;;;;;8.63;8.03;;;;;;;5.35;71.25;100304.66;5077718;28;20209;-78
2022/04/12 02:05:41;;;;;;;9.70;8.90;;;;;;;5.34;71.43;100310.66;5076444;28;20206;-78
2022/04/12 02:08:08;;;;;;;9.07;8.37;;;;;;;5.29;71.15;100298.59;5068422;28;20724;-78
2022/04/12 02:10:35;;;;;;;9.50;8.80;;;;;;;5.29;71.72;100303.75;5076892;28;20311;-77
2022/04/12 02:13:01;;;;;;;9.23;8.57;;;;;;;5.27;71.22;100311.56;5076763;28;20205;-78
2022/04/12 02:15:29;;;;;;;9.93;9.23;;;;;;;5.32;71.41;100314.13;5076193;28;20205;-78
2022/04/12 02:17:56;;;;;;;11.00;9.87;;;;;;;5.28;71.01;100315.00;5077181;28;20204;-78
2022/04/12 02:20:22;;;;;;;9.40;8.67;;;;;;;5.20;71.55;100301.19;5075979;28;20225;-78
2022/04/12 02:22:49;;;;;;;9.17;8.47;;;;;;;5.17;71.23;100308.09;5076820;28;20213;-78
2022/04/12 02:25:15;;;;;;;8.93;8.23;;;;;;;5.20;71.20;100308.97;5076074;28;20682;-77
2022/04/12 02:27:42;;;;;;;8.47;7.77;;;;;;;5.16;71.00;100319.28;5076440;28;20210;-77
2022/04/12 02:30:10;;;;;;;10.43;9.60;;;;;;;5.16;71.04;100321.03;5076896;28;20252;-78
2022/04/12 02:32:37;;;;;;;8.80;8.13;;;;;;;5.14;71.25;100321.00;5076847;28;20238;-79
2022/04/12 02:35:05;;;;;;;9.03;8.27;;;;;;;5.10;71.47;100308.94;5076410;28;20212;-77
2022/04/12 02:37:31;;;;;;;9.53;8.67;;;;;;;5.15;71.42;100296.88;5067919;28;20281;-78
2022/04/12 02:39:58;;;;;;;9.53;8.73;;;;;;;5.14;70.71;100321.00;5075820;28;21051;-78
2022/04/12 02:42:24;;;;;;;9.20;8.07;;;;;;;5.12;70.65;100322.72;5076243;28;20690;-78
2022/04/12 02:44:50;;;;;;;8.80;8.10;;;;;;;5.21;70.04;100342.56;5076412;28;20209;-78
2022/04/12 02:47:17;;;;;;;8.87;8.17;;;;;;;5.21;70.16;100334.81;5076292;28;20262;-79
2022/04/12 02:49:45;;;;;;;9.60;8.77;;;;;;;5.26;70.41;100334.84;5077235;28;20290;-77
2022/04/12 02:52:11;;;;;;;9.27;8.33;;;;;;;5.26;70.12;100335.69;5076926;28;20205;-78
2022/04/12 02:54:37;;;;;;;9.03;8.20;;;;;;;5.32;69.89;100340.88;5076262;28;20266;-77
2022/04/12 02:57:04;;;;;;;8.80;8.10;;;;;;;5.35;69.18;100360.69;5076110;28;20232;-76
2022/04/12 02:59:31;;;;;;;7.67;7.07;;;;;;;5.37;68.31;100390.03;5076419;28;20204;-78
2022/04/12 03:01:57;;;;;;;8.67;7.97;;;;;;;5.38;68.56;100403.00;5076577;28;20213;-78
2022/04/12 03:04:24;;;;;;;7.83;7.20;;;;;;;5.40;67.91;100404.72;5075720;28;20616;-78
2022/04/12 03:06:51;;;;;;;8.17;7.57;;;;;;;5.41;68.10;100407.34;5071726;28;20232;-79
2022/04/12 03:09:18;;;;;;;8.40;7.60;;;;;;;5.45;68.05;100408.16;5072676;28;20270;-78
2022/04/12 03:11:44;;;;;;;8.57;7.97;;;;;;;5.42;68.35;100411.63;5076377;28;20217;-80
2022/04/12 03:14:11;;;;;;;8.50;7.90;;;;;;;5.44;68.02;100415.09;5074730;28;20213;-79
2022/04/12 03:16:37;;;;;;;8.83;8.13;;;;;;;5.42;68.30;100406.44;5076949;28;20215;-80
2022/04/12 03:19:04;;;;;;;8.60;7.93;;;;;;;5.37;68.97;100396.09;5076170;28;20200;-80
2022/04/12 03:21:30;;;;;;;7.83;7.23;;;;;;;5.38;69.17;100394.38;5075109;28;20236;-80
2022/04/12 03:23:58;;;;;;;13.30;7.87;;;;;;;5.40;68.85;100379.69;5076578;28;20204;-80
2022/04/12 03:26:24;;;;;;;8.57;7.87;;;;;;;5.42;69.22;100388.34;5074435;28;20254;-80
2022/04/12 03:28:51;;;;;;;8.33;7.73;;;;;;;5.42;68.82;100392.66;5074708;28;20225;-80
2022/04/12 03:31:17;;;;;;;9.20;8.50;;;;;;;5.44;68.66;100399.56;5076378;28;20302;-79
2022/04/12 03:33:46;;;;;;;8.27;7.67;;;;;;;5.45;69.01;100390.06;5076005;28;20250;-79
2022/04/12 03:36:12;;;;;;;8.53;7.83;;;;;;;5.40;70.02;100363.31;5076001;28;20212;-79
2022/04/12 03:38:47;;;;;;;8.83;8.13;;;;;;;5.39;71.17;100339.13;5067963;28;20242;-78
2022/04/12 03:41:18;;;;;;;8.40;7.80;;;;;;;5.35;71.30;100317.59;5076297;28;20231;-79
2022/04/12 03:43:45;;;;;;;7.97;7.37;;;;;;;5.37;70.77;100321.03;5076059;28;20201;-79
2022/04/12 03:46:11;;;;;;;8.30;7.70;;;;;;;5.35;71.17;100329.66;5075862;28;20968;-80
2022/04/12 03:48:38;;;;;;;9.13;8.40;;;;;;;5.33;72.27;100315.84;5076246;28;20278;-78
2022/04/12 03:51:04;;;;;;;9.40;8.57;;;;;;;5.30;72.97;100287.38;5076130;28;20231;-79
2022/04/12 03:53:31;;;;;;;8.90;8.13;;;;;;;5.31;72.38;100289.97;5076385;28;20291;-79
2022/04/12 03:55:58;;;;;;;7.73;7.10;;;;;;;5.34;72.24;100283.94;5076617;28;20274;-79
2022/04/12 03:58:26;;;;;;;9.97;8.17;;;;;;;5.33;71.38;100308.97;5076516;28;20579;-78
2022/04/12 04:00:53;;;;;;;8.43;7.63;;;;;;;5.36;70.41;100342.59;5075382;28;20725;-78
2022/04/12 04:03:19;;;;;;;8.80;8.10;;;;;;;5.36;70.10;100355.53;5075824;28;20212;-79
2022/04/12 04:05:46;;;;;;;8.90;8.20;;;;;;;5.38;70.16;100356.41;5076136;28;20205;-79
2022/04/12 04:08:12;;;;;;;8.50;7.70;;;;;;;5.32;70.26;100366.75;5067657;28;20204;-79
2022/04/12 04:10:39;;;;;;;8.17;7.47;;;;;;;5.32;70.86;100347.78;5075965;28;20224;-79
2022/04/12 04:13:08;;;;;;;7.87;7.20;;;;;;;5.27;71.22;100337.44;5076009;28;20209;-79
2022/04/12 04:15:37;;;;;;;8.63;7.83;;;;;;;5.23;71.76;100337.41;5075882;28;20209;-79
2022/04/12 04:18:04;;;;;;;8.57;7.40;;;;;;;5.06;72.15;100330.50;5076487;28;20205;-79
2022/04/12 04:20:30;;;;;;;8.53;7.77;;;;;;;5.11;71.88;100315.84;5075471;28;20216;-78
2022/04/12 04:22:56;;;;;;;7.57;6.97;;;;;;;5.13;72.23;100314.13;5075740;28;20208;-79
2022/04/12 04:25:23;;;;;;;8.20;7.43;;;;;;;5.13;72.59;100308.94;5075126;28;20213;-80
2022/04/12 04:27:49;;;;;;;8.13;7.23;;;;;;;5.17;72.70;100302.03;5075804;28;20201;-79
2022/04/12 04:30:17;;;;;;;8.23;7.43;;;;;;;5.17;72.44;100310.69;5075706;28;20228;-79
2022/04/12 04:32:45;;;;;;;7.30;6.80;;;;;;;5.17;72.43;100320.13;5075554;28;20262;-79
2022/04/12 04:35:12;;;;;;;7.07;6.57;;;;;;;5.21;71.90;100336.53;5075355;28;20270;-79
2022/04/12 04:37:43;;;;;;;6.87;6.37;;;;;;;5.21;71.94;100341.72;5067883;28;20247;-79
2022/04/12 04:40:11;;;;;;;7.10;6.40;;;;;;;5.14;71.45;100356.38;5075701;28;20729;-78
2022/04/12 04:42:37;;;;;;;7.13;6.47;;;;;;;5.09;71.04;100371.00;5075321;28;20206;-79
2022/04/12 04:45:05;;;;;;;6.97;6.37;;;;;;;5.12;71.04;100374.47;5077981;28;20204;-79
2022/04/12 04:47:31;;;;;;;7.07;6.43;;;;;;;5.11;70.84;100375.34;5080035;28;20213;-79
2022/04/12 04:49:59;;;;;;;7.07;6.57;;;;;;;5.08;71.34;100375.34;5079512;28;20228;-79
2022/04/12 04:52:25;;;;;;;6.20;5.60;;;;;;;5.12;71.43;100378.81;5078125;28;20671;-79
2022/04/12 04:54:52;;;;;;;7.10;6.60;;;;;;;5.11;71.09;100397.75;5077999;28;20212;-79
2022/04/12 04:57:18;;;;;;;9.97;6.13;;;;;;;5.08;71.16;100396.03;5078193;28;20213;-78
2022/04/12 04:59:44;;;;;;;7.03;6.43;;;;;;;5.09;71.52;100382.22;5077960;28;20771;-79
2022/04/12 05:02:11;;;;;;;7.30;6.77;;;;;;;5.09;71.71;100373.59;5077966;28;20254;-79
2022/04/12 05:04:37;;;;;;;6.83;6.23;;;;;;;4.98;72.16;100379.63;5077877;28;20262;-78
2022/04/12 05:07:05;;;;;;;7.50;6.87;;;;;;;5.07;72.32;100372.72;5071500;28;20615;-78
2022/04/12 05:09:31;;;;;;;6.87;6.37;;;;;;;5.06;72.51;100369.28;5076705;28;20224;-79
2022/04/12 05:11:58;;;;;;;6.70;6.20;;;;;;;5.08;72.04;100356.38;5077943;28;20208;-78
2022/04/12 05:14:24;;;;;;;8.07;6.80;;;;;;;5.01;72.31;100360.66;5077724;28;20742;-78
2022/04/12 05:16:51;;;;;;;7.17;6.57;;;;;;;5.04;72.03;100352.91;5078354;28;20207;-79
2022/04/12 05:19:17;;;;;;;7.23;6.63;;;;;;;5.06;72.38;100371.03;5078275;28;20209;-78
2022/04/12 05:21:44;;;;;;;7.30;6.70;;;;;;;5.09;72.18;100361.53;5078149;28;20204;-79
2022/04/12 05:24:11;;;;;;;6.57;6.07;;;;;;;5.05;72.63;100357.19;5077969;28;20333;-79
2022/04/12 05:26:38;;;;;;;7.47;6.87;;;;;;;5.08;72.73;100356.38;5077371;28;20929;-77
2022/04/12 05:29:05;;;;;;;8.03;7.33;;;;;;;5.11;71.02;100385.72;5078179;28;20225;-79
2022/04/12 05:31:31;;;;;;;7.27;6.67;;;;;;;5.18;70.05;100425.38;5078011;28;20237;-79
2022/04/12 05:33:57;;;;;;;6.73;6.23;;;;;;;5.28;68.73;100446.97;5077395;28;20615;-77
2022/04/12 05:36:24;;;;;;;7.20;6.50;;;;;;;5.33;68.16;100484.06;5089437;22;20225;-77
2022/04/12 05:38:51;;;;;;;7.80;7.07;;;;;;;5.38;68.10;100485.81;5082602;28;20212;-78
2022/04/12 05:41:18;;;;;;;8.20;7.50;;;;;;;5.40;68.36;100493.59;5075443;28;20221;-76
2022/04/12 05:43:45;;;;;;;7.03;6.43;;;;;;;5.47;67.58;100515.19;5074392;28;20208;-78
2022/04/12 05:46:11;;;;;;;7.17;6.57;;;;;;;5.49;67.47;100524.69;5075377;28;20750;-77
2022/04/12 05:48:38;;;;;;;7.30;6.70;;;;;;;5.62;66.92;100514.38;5077095;28;20258;-77
2022/04/12 05:51:04;;;;;;;7.33;6.63;;;;;;;5.67;66.84;100528.19;5077913;28;20270;-77
2022/04/12 05:53:30;;;;;;;6.50;5.90;;;;;;;5.73;67.40;100518.72;5066523;28;20227;-79
2022/04/12 05:55:57;;;;;;;7.43;6.53;;;;;;;5.78;67.29;100504.03;5058789;28;20603;-78
2022/04/12 05:58:25;;;;;;;7.37;6.77;;;;;;;5.84;67.01;100515.28;5065471;28;20205;-77
2022/04/12 06:00:52;;;;;;;7.33;6.73;;;;;;;5.88;66.56;100523.03;5078752;28;20224;-78
2022/04/12 06:03:19;;;;;;;7.40;6.80;;;;;;;5.94;66.88;100522.19;5078804;28;20213;-78
2022/04/12 06:05:45;;;;;;;7.50;6.80;;;;;;;6.04;67.04;100529.13;5066439;28;20552;-79
2022/04/12 06:08:11;;;;;;;9.37;6.37;;;;;;;6.06;67.07;100522.22;5059057;28;20210;-78
2022/04/12 06:10:38;;;;;;;7.67;7.07;;;;;;;6.11;67.32;100519.66;5058301;28;20229;-76
2022/04/12 06:13:05;;;;;;;7.07;6.47;;;;;;;6.19;67.72;100519.66;5057856;28;20249;-78
2022/04/12 06:15:32;;;;;;;7.37;6.63;;;;;;;6.21;67.77;100510.16;5059094;28;20205;-78
2022/04/12 06:17:59;;;;;;;6.73;6.23;;;;;;;6.24;66.87;100525.69;5058859;28;20225;-77
2022/04/12 06:20:25;;;;;;;7.80;7.00;;;;;;;6.38;65.43;100554.22;5063864;28;20711;-78
2022/04/12 06:22:52;;;;;;;8.50;6.93;;;;;;;6.50;66.61;100549.91;5079564;28;20723;-78
2022/04/12 06:25:19;;;;;;;7.03;6.43;;;;;;;6.64;64.63;100569.75;5080104;28;20251;-77
2022/04/12 06:27:50;;;;;;;7.20;6.60;;;;;;;6.75;64.67;100604.34;5075338;28;20208;-77
2022/04/12 06:30:18;;;;;;;8.30;6.80;;;;;;;6.82;65.51;100602.59;5066397;28;20218;-78
2022/04/12 06:32:46;;;;;;;7.83;7.23;;;;;;;6.87;66.19;100583.56;5071548;28;20712;-78
2022/04/12 06:35:14;;;;;;;7.27;6.67;;;;;;;6.92;64.63;100581.84;5070430;28;20197;-78
2022/04/12 06:37:42;;;;;;;7.03;6.33;;;;;;;7.00;64.58;100596.53;5068369;28;20213;-78
2022/04/12 06:40:10;;;;;;;7.80;7.20;;;;;;;7.07;66.09;100600.84;5066376;28;20233;-78
2022/04/12 06:42:37;;;;;;;7.20;6.57;;;;;;;7.13;65.00;100580.94;5067536;28;20199;-78
2022/04/12 06:45:04;;;;;;;8.03;7.27;;;;;;;7.21;66.74;100565.34;5067476;28;20589;-78
2022/04/12 06:47:32;;;;;;;7.90;7.20;;;;;;;7.29;65.26;100597.31;5066949;28;20231;-78
2022/04/12 06:50:00;;;;;;;8.00;7.20;;;;;;;7.40;64.73;100609.44;5066831;28;20220;-78
2022/04/12 06:52:26;;;;;;;8.07;7.33;;;;;;;7.56;64.19;100647.47;5067696;28;20197;-78
2022/04/12 06:54:53;;;;;;;8.20;7.53;;;;;;;7.68;62.92;100662.16;5066787;28;20203;-79
2022/04/12 06:57:19;;;;;;;8.40;7.13;;;;;;;7.78;62.65;100675.97;5067462;28;20256;-78
2022/04/12 06:59:46;;;;;;;7.80;7.07;;;;;;;7.80;63.09;100684.63;5068780;28;20232;-79
2022/04/12 07:02:13;;;;;;;8.87;8.17;;;;;;;7.90;62.55;100688.91;5069604;28;20651;-78
2022/04/12 07:04:39;;;;;;;9.03;8.33;;;;;;;7.96;65.19;100686.28;5068191;28;20189;-78
2022/04/12 07:07:07;;;;;;;9.27;8.47;;;;;;;8.09;66.07;100552.78;5062267;28;20207;-78
2022/04/12 07:09:34;;;;;;;8.70;8.00;;;;;;;8.13;65.79;100609.09;5056687;28;20281;-78
2022/04/12 07:12:01;;;;;;;15.77;8.60;;;;;;;8.19;66.82;100571.78;5054882;28;20214;-76
2022/04/12 07:14:29;;;;;;;9.67;8.80;;;;;;;8.20;64.05;100638.50;5053546;28;20259;-77
2022/04/12 07:16:55;;;;;;;11.30;9.43;;;;;;;8.21;63.16;100679.25;5054004;28;20210;-78
2022/04/12 07:19:22;;;;;;;9.80;8.90;;;;;;;8.26;63.35;100694.81;5054610;28;20212;-79
2022/04/12 07:21:48;;;;;;;10.83;9.80;;;;;;;8.25;62.85;100711.31;5055718;28;20279;-79
2022/04/12 07:24:17;;;;;;;10.77;9.63;;;;;;;8.24;63.80;100705.22;5056384;28;20210;-78
2022/04/12 07:26:44;;;;;;;10.27;9.23;;;;;;;8.19;64.42;100668.00;5056664;28;20209;-78
2022/04/12 07:29:10;;;;;;;10.30;9.40;;;;;;;8.22;66.06;100633.28;5070979;28;20201;-79
2022/04/12 07:31:37;;;;;;;9.70;8.47;;;;;;;8.25;65.44;100610.75;5077148;28;20231;-79
2022/04/12 07:34:04;;;;;;;10.17;8.40;;;;;;;8.30;66.04;100603.75;5075019;28;20659;-79
2022/04/12 07:36:30;;;;;;;9.63;8.83;;;;;;;8.29;66.65;100594.25;5061957;28;20223;-79
2022/04/12 07:38:57;;;;;;;10.37;8.20;;;;;;;8.31;66.64;100594.25;5060241;28;20555;-79
2022/04/12 07:41:25;;;;;;;9.10;8.40;;;;;;;8.31;66.56;100602.03;5055405;28;20229;-79
2022/04/12 07:43:52;;;;;;;9.03;8.23;;;;;;;8.33;66.41;100593.34;5055840;28;20208;-77
2022/04/12 07:46:18;;;;;;;11.90;8.13;;;;;;;8.33;67.44;100582.09;5056459;28;20246;-79
2022/04/12 07:48:45;;;;;;;8.57;7.87;;;;;;;8.39;67.53;100587.25;5057626;28;20208;-79
2022/04/12 07:51:11;;;;;;;8.87;8.07;;;;;;;8.54;66.54;100592.34;5056916;28;20286;-79
2022/04/12 07:53:38;;;;;;;8.97;8.23;;;;;;;8.62;67.54;100579.28;5056718;28;20260;-78
2022/04/12 07:56:05;;;;;;;8.50;7.63;;;;;;;8.72;66.88;100590.44;5057110;28;20230;-79
2022/04/12 07:58:33;;;;;;;8.73;8.00;;;;;;;8.88;66.07;100601.59;5056151;28;20708;-79
2022/04/12 08:00:59;;;;;;;7.53;6.93;;;;;;;9.04;65.06;100639.63;5057047;28;20230;-79
2022/04/12 08:03:25;;;;;;;8.07;7.37;;;;;;;9.13;64.04;100673.38;5071310;28;20203;-79
2022/04/12 08:05:52;;;;;;;9.13;7.60;;;;;;;9.24;64.04;100686.31;5062912;28;20200;-79
2022/04/12 08:08:19;;;;;;;8.77;7.97;;;;;;;9.32;63.90;100681.91;5055362;28;20212;-77
2022/04/12 08:10:46;;;;;;;7.63;6.93;;;;;;;9.48;63.02;100708.66;5057136;28;20291;-79
2022/04/12 08:13:12;;;;;;;8.03;7.27;;;;;;;9.60;62.17;100728.53;5057227;28;20211;-79
2022/04/12 08:15:40;;;;;;;9.00;7.70;;;;;;;9.66;62.09;100735.41;5057149;28;20206;-80
2022/04/12 08:18:07;;;;;;;8.87;8.17;;;;;;;9.70;62.59;100739.72;5055584;28;20204;-80
2022/04/12 08:20:34;;;;;;;7.63;7.13;;;;;;;9.76;62.28;100733.59;5056450;28;20277;-80
2022/04/12 08:23:02;;;;;;;7.93;7.27;;;;;;;9.78;62.62;100752.69;5057738;28;20209;-79
2022/04/12 08:25:29;;;;;;;8.07;7.27;;;;;;;9.90;62.83;100739.50;5058211;28;20286;-79
2022/04/12 08:27:55;;;;;;;8.67;7.73;;;;;;;10.02;62.63;100743.72;5057851;28;20262;-80
2022/04/12 08:30:22;;;;;;;7.77;7.13;;;;;;;10.09;63.15;100732.34;5057054;28;20232;-79
2022/04/12 08:32:50;;;;;;;8.00;7.40;;;;;;;10.06;63.71;100724.53;5066913;28;20258;-80
2022/04/12 08:35:16;;;;;;;8.40;7.70;;;;;;;10.17;63.98;100703.53;5068933;28;20216;-79
2022/04/12 08:37:43;;;;;;;8.43;7.73;;;;;;;10.22;63.64;100704.34;5064391;28;20195;-79
2022/04/12 08:40:10;;;;;;;8.43;7.83;;;;;;;10.31;64.64;100670.34;5072512;28;20222;-77
2022/04/12 08:42:37;;;;;;;8.40;7.83;;;;;;;10.40;64.40;100664.97;5072138;28;20208;-77
2022/04/12 08:45:06;;;;;;;8.57;7.77;;;;;;;10.44;64.48;100676.22;5072535;28;20218;-78
2022/04/12 08:47:34;;;;;;;7.93;7.10;;;;;;;10.52;63.78;100676.97;5068040;28;20240;-78
2022/04/12 08:50:05;;;;;;;7.97;7.27;;;;;;;10.63;62.67;100715.97;5056543;28;20265;-78
2022/04/12 08:52:32;;;;;;;8.03;7.33;;;;;;;10.75;62.79;100705.34;5056775;28;20242;-79
2022/04/12 08:54:58;;;;;;;7.63;7.03;;;;;;;10.86;62.58;100731.28;5059672;28;20189;-80
2022/04/12 08:57:25;;;;;;;7.23;6.63;;;;;;;10.96;61.21;100750.28;5065115;28;20258;-78
2022/04/12 08:59:52;;;;;;;8.07;7.37;;;;;;;11.04;60.19;100787.59;5060138;28;20239;-79
2022/04/12 09:02:18;;;;;;;7.27;6.77;;;;;;;11.08;59.77;100810.19;5062478;28;20214;-79
2022/04/12 09:04:45;;;;;;;7.43;6.93;;;;;;;11.11;59.43;100820.59;5072772;28;20258;-79
2022/04/12 09:07:13;;;;;;;7.63;6.93;;;;;;;11.14;60.34;100810.13;5056907;28;20203;-79
2022/04/12 09:09:42;;;;;;;6.97;6.10;;;;;;;11.22;60.94;100795.16;5057183;28;20234;-79
2022/04/12 09:12:10;;;;;;;8.40;7.80;;;;;;;11.38;59.45;100810.59;5057278;28;20215;-79
2022/04/12 09:14:38;;;;;;;7.80;7.23;;;;;;;11.49;60.51;100806.06;5056890;28;20211;-79
2022/04/12 09:17:05;;;;;;;7.67;7.07;;;;;;;11.64;60.67;100813.63;5056418;28;20203;-77
2022/04/12 09:19:42;;;;;;;7.80;7.30;;;;;;;11.74;61.41;100767.28;5056178;28;20604;-79
2022/04/12 09:22:18;;;;;;;8.53;7.80;;;;;;;11.88;61.89;100780.94;5057432;28;20218;-78
2022/04/12 09:24:46;;;;;;;8.30;7.60;;;;;;;12.07;63.59;100707.34;5055345;28;20865;-80
2022/04/12 09:27:14;;;;;;;7.83;7.20;;;;;;;12.10;59.37;100781.41;5057241;28;20290;-78
2022/04/12 09:29:45;;;;;;;8.10;7.40;;;;;;;12.16;63.14;100774.34;5074690;28;20785;-78
2022/04/12 09:32:14;;;;;;;7.73;7.13;;;;;;;12.23;61.59;100728.81;5081869;28;20199;-79
2022/04/12 09:34:41;;;;;;;7.27;6.73;;;;;;;12.27;59.55;100804.66;5077374;28;20248;-78
2022/04/12 09:37:22;;;;;;;8.17;7.47;;;;;;;12.34;61.17;100794.06;5071451;28;20791;-79
2022/04/12 09:40:04;;;;;;;7.30;6.70;;;;;;;12.44;58.42;100834.84;5081262;28;20284;-79
2022/04/12 09:42:43;;;;;;;7.43;6.83;;;;;;;12.48;58.54;100840.00;5082143;28;20195;-79
2022/04/12 09:45:11;;;;;;;6.83;6.30;;;;;;;12.56;56.98;100899.22;5080272;28;20220;-78
2022/04/12 09:47:39;;;;;;;7.40;6.90;;;;;;;12.61;57.91;100907.84;5077080;28;20271;-79
2022/04/12 09:50:07;;;;;;;7.40;6.80;;;;;;;12.65;56.36;100918.22;5077632;28;20225;-78
2022/04/12 09:52:35;;;;;;;8.23;7.43;;;;;;;12.69;57.61;100887.59;5076798;28;20258;-80
2022/04/12 09:55:01;;;;;;;6.43;5.83;;;;;;;12.71;55.70;100936.44;5081085;28;20228;-81
2022/04/12 09:57:27;;;;;;;7.17;6.67;;;;;;;12.74;56.27;100948.59;5078760;28;20203;-80
2022/04/12 09:59:55;;;;;;;7.77;7.20;;;;;;;12.84;56.46;100923.09;5079980;28;20282;-79
2022/04/12 10:02:23;;;;;;;7.20;6.57;;;;;;;12.94;55.98;100956.06;5079408;28;20223;-80
2022/04/12 10:04:52;;;;;;;8.30;7.70;;;;;;;13.02;58.69;100870.31;5074157;28;20234;-80
2022/04/12 10:07:20;;;;;;;7.90;7.30;;;;;;;13.12;58.24;100844.72;5060084;28;20296;-80
2022/04/12 10:09:50;;;;;;;7.43;6.83;;;;;;;13.16;56.01;100911.06;5058930;28;20260;-77
2022/04/12 10:12:18;;;;;;;7.60;7.00;;;;;;;13.19;57.12;100883.03;5057609;28;20247;-80
2022/04/12 10:14:44;;;;;;;7.00;6.43;;;;;;;13.28;55.32;100914.28;5058368;28;20300;-78
2022/04/12 10:17:12;;;;;;;7.27;6.70;;;;;;;13.33;56.73;100913.34;5064242;28;20247;-79
2022/04/12 10:19:39;;;;;;;9.00;8.20;;;;;;;13.40;56.40;100899.19;5065933;28;20225;-78
2022/04/12 10:22:05;;;;;;;8.17;7.57;;;;;;;13.47;55.24;100929.63;5069063;28;20201;-80
2022/04/12 10:24:33;;;;;;;7.97;7.37;;;;;;;13.55;55.96;100883.09;5058244;28;20612;-79
2022/04/12 10:27:01;;;;;;;7.83;7.13;;;;;;;13.65;55.02;100926.56;5057770;28;20316;-80
2022/04/12 10:29:28;;;;;;;7.33;6.73;;;;;;;13.72;54.49;100953.53;5059703;28;20629;-80
2022/04/12 10:31:57;;;;;;;7.20;6.60;;;;;;;13.83;53.71;100972.47;5062401;28;20294;-80
2022/04/12 10:34:23;;;;;;;7.53;6.83;;;;;;;13.93;54.35;100943.41;5078793;28;20209;-80
2022/04/12 10:37:05;;;;;;;8.30;7.60;;;;;;;14.04;53.28;100962.38;5058901;28;20213;-79
2022/04/12 10:39:37;;;;;;;7.27;6.70;;;;;;;14.12;53.18;100991.06;5058090;28;20205;-79
2022/04/12 10:42:08;;;;;;;7.20;6.60;;;;;;;14.12;52.67;101012.06;5057675;28;20243;-79
2022/04/12 10:44:43;;;;;;;8.47;7.67;;;;;;;14.20;53.86;100984.72;5058188;28;20205;-80
2022/04/12 10:47:32;;;;;;;8.20;7.50;;;;;;;14.28;52.77;100992.41;5057608;28;20621;-80
2022/04/12 10:50:01;;;;;;;7.57;6.97;;;;;;;14.34;51.57;101038.66;5054225;28;20693;-79
2022/04/12 10:52:35;;;;;;;8.23;7.00;;;;;;;14.40;51.05;101049.88;5058563;28;20259;-79
2022/04/12 10:55:03;;;;;;;8.37;7.67;;;;;;;14.43;50.42;101091.84;5058656;28;20673;-79
2022/04/12 10:57:31;;;;;;;8.03;7.23;;;;;;;14.48;52.08;101074.19;5058938;28;20205;-80
2022/04/12 11:00:03;;;;;;;8.30;7.70;;;;;;;14.60;52.55;101007.34;5057983;28;20226;-79
2022/04/12 11:02:31;;;;;;;8.07;7.43;;;;;;;14.78;53.28;100968.34;5065438;28;20209;-78
2022/04/12 11:04:58;;;;;;;8.53;7.83;;;;;;;14.95;51.23;101044.13;5072514;28;20235;-79
2022/04/12 11:07:30;;;;;;;8.77;8.07;;;;;;;15.12;51.73;100991.91;5058650;28;20201;-80
2022/04/12 11:10:24;;;;;;;9.10;8.40;;;;;;;15.27;51.64;101020.38;5057721;28;20280;-79
2022/04/12 11:13:05;;;;;;;8.73;8.13;;;;;;;15.45;51.06;101052.34;5051547;28;20264;-79
2022/04/12 11:15:33;;;;;;;8.83;8.13;;;;;;;15.54;50.84;101066.97;5058432;28;20193;-77
2022/04/12 11:18:11;;;;;;;8.67;7.87;;;;;;;15.68;50.49;101094.63;5058031;28;20273;-78
2022/04/12 11:20:40;;;;;;;8.93;8.23;;;;;;;15.87;50.24;101078.28;5057619;28;20267;-79
2022/04/12 11:23:08;;;;;;;9.23;8.53;;;;;;;16.02;49.35;101119.97;5058107;28;20205;-80
2022/04/12 11:25:36;;;;;;;9.37;8.67;;;;;;;16.14;49.93;101118.72;5056568;28;20209;-80
2022/04/12 11:28:04;;;;;;;9.77;8.97;;;;;;;16.38;48.92;101109.19;5057491;28;20297;-80
2022/04/12 11:30:31;;;;;;;8.53;7.93;;;;;;;16.58;47.21;101152.47;5056625;28;20716;-79
2022/04/12 11:32:58;;;;;;;9.50;8.90;;;;;;;16.94;47.63;101184.69;5068165;28;20413;-78
2022/04/12 11:35:24;;;;;;;9.73;9.03;;;;;;;18.08;46.47;101191.25;5067148;28;20199;-79